sensor_id;sensor_type;location;lat;lon;timestamp;P1;durP1;ratioP1;P2;durP2;ratioP2
21315;SDS011;10817;55.820;13.030;2024-01-16T00:01:56;4.65;;;3.63;;
21315;SDS011;10817;55.820;13.030;2024-01-16T00:04:23;6.30;;;3.65;;
21315;SDS011;10817;55.820;13.030;2024-01-16T00:06:52;5.82;;;3.70;;
21315;SDS011;10817;55.820;13.030;2024-01-16T00:09:20;3.90;;;3.33;;
21315;SDS011;10817;55.820;13.030;2024-01-16T00:11:47;5.55;;;4.00;;
21315;SDS011;10817;55.820;13.030;2024-01-16T00:14:13;4.40;;;3.92;;
21315;SDS011;10817;55.820;13.030;2024-01-16T00:16:44;5.72;;;4.03;;
21315;SDS011;10817;55.820;13.030;2024-01-16T00:19:11;7.15;;;3.90;;
21315;SDS011;10817;55.820;13.030;2024-01-16T00:21:39;8.20;;;4.03;;
21315;SDS011;10817;55.820;13.030;2024-01-16T00:24:19;7.95;;;4.20;;
21315;SDS011;10817;55.820;13.030;2024-01-16T00:27:05;5.82;;;3.15;;
21315;SDS011;10817;55.820;13.030;2024-01-16T00:30:25;4.20;;;3.58;;
21315;SDS011;10817;55.820;13.030;2024-01-16T00:32:52;10.73;;;3.88;;
21315;SDS011;10817;55.820;13.030;2024-01-16T00:38:19;4.78;;;3.50;;
21315;SDS011;10817;55.820;13.030;2024-01-16T00:41:01;5.43;;;3.67;;
21315;SDS011;10817;55.820;13.030;2024-01-16T00:43:28;5.00;;;3.50;;
21315;SDS011;10817;55.820;13.030;2024-01-16T00:45:55;3.88;;;3.53;;
21315;SDS011;10817;55.820;13.030;2024-01-16T00:48:22;6.07;;;4.28;;
21315;SDS011;10817;55.820;13.030;2024-01-16T00:50:56;7.00;;;4.13;;
21315;SDS011;10817;55.820;13.030;2024-01-16T00:53:25;8.85;;;4.18;;
21315;SDS011;10817;55.820;13.030;2024-01-16T00:55:53;7.80;;;3.60;;
21315;SDS011;10817;55.820;13.030;2024-01-16T00:58:22;4.90;;;3.58;;
21315;SDS011;10817;55.820;13.030;2024-01-16T01:00:49;5.57;;;4.30;;
21315;SDS011;10817;55.820;13.030;2024-01-16T01:06:20;11.80;;;4.45;;
21315;SDS011;10817;55.820;13.030;2024-01-16T01:09:12;8.10;;;4.10;;
21315;SDS011;10817;55.820;13.030;2024-01-16T01:12:14;7.00;;;4.18;;
21315;SDS011;10817;55.820;13.030;2024-01-16T01:15:11;5.40;;;4.28;;
21315;SDS011;10817;55.820;13.030;2024-01-16T01:17:43;5.57;;;4.53;;
21315;SDS011;10817;55.820;13.030;2024-01-16T01:20:17;7.20;;;4.28;;
21315;SDS011;10817;55.820;13.030;2024-01-16T01:22:54;4.50;;;3.85;;
21315;SDS011;10817;55.820;13.030;2024-01-16T01:25:23;6.68;;;4.25;;
21315;SDS011;10817;55.820;13.030;2024-01-16T01:27:54;6.57;;;3.83;;
21315;SDS011;10817;55.820;13.030;2024-01-16T01:30:30;4.75;;;3.80;;
21315;SDS011;10817;55.820;13.030;2024-01-16T01:32:59;7.72;;;4.78;;
21315;SDS011;10817;55.820;13.030;2024-01-16T01:35:32;5.47;;;4.78;;
21315;SDS011;10817;55.820;13.030;2024-01-16T01:37:59;5.65;;;3.83;;
21315;SDS011;10817;55.820;13.030;2024-01-16T01:40:31;5.50;;;4.00;;
21315;SDS011;10817;55.820;13.030;2024-01-16T01:43:16;6.53;;;4.45;;
21315;SDS011;10817;55.820;13.030;2024-01-16T01:45:47;8.20;;;4.70;;
21315;SDS011;10817;55.820;13.030;2024-01-16T01:48:26;5.53;;;4.28;;
21315;SDS011;10817;55.820;13.030;2024-01-16T01:50:53;9.65;;;3.63;;
21315;SDS011;10817;55.820;13.030;2024-01-16T01:53:20;5.28;;;3.90;;
21315;SDS011;10817;55.820;13.030;2024-01-16T01:55:47;5.55;;;3.25;;
21315;SDS011;10817;55.820;13.030;2024-01-16T01:58:14;5.55;;;3.88;;
21315;SDS011;10817;55.820;13.030;2024-01-16T02:00:42;3.67;;;3.10;;
21315;SDS011;10817;55.820;13.030;2024-01-16T02:03:09;6.47;;;4.50;;
21315;SDS011;10817;55.820;13.030;2024-01-16T02:05:36;6.40;;;4.10;;
21315;SDS011;10817;55.820;13.030;2024-01-16T02:08:05;5.07;;;3.92;;
21315;SDS011;10817;55.820;13.030;2024-01-16T02:10:32;4.82;;;4.10;;
21315;SDS011;10817;55.820;13.030;2024-01-16T02:13:00;6.88;;;4.68;;
21315;SDS011;10817;55.820;13.030;2024-01-16T02:15:27;7.60;;;4.28;;
21315;SDS011;10817;55.820;13.030;2024-01-16T02:17:54;7.07;;;4.57;;
21315;SDS011;10817;55.820;13.030;2024-01-16T02:20:24;6.30;;;4.70;;
21315;SDS011;10817;55.820;13.030;2024-01-16T02:22:51;4.70;;;4.13;;
21315;SDS011;10817;55.820;13.030;2024-01-16T02:25:23;10.70;;;5.18;;
21315;SDS011;10817;55.820;13.030;2024-01-16T02:27:49;5.45;;;3.70;;
21315;SDS011;10817;55.820;13.030;2024-01-16T02:30:16;7.63;;;3.85;;
21315;SDS011;10817;55.820;13.030;2024-01-16T02:32:43;3.53;;;3.08;;
21315;SDS011;10817;55.820;13.030;2024-01-16T02:35:10;7.05;;;3.83;;
21315;SDS011;10817;55.820;13.030;2024-01-16T02:37:37;6.00;;;3.55;;
21315;SDS011;10817;55.820;13.030;2024-01-16T02:40:04;5.50;;;3.97;;
21315;SDS011;10817;55.820;13.030;2024-01-16T02:42:33;4.05;;;3.65;;
21315;SDS011;10817;55.820;13.030;2024-01-16T02:45:00;7.20;;;4.10;;
21315;SDS011;10817;55.820;13.030;2024-01-16T02:47:28;5.25;;;3.90;;
21315;SDS011;10817;55.820;13.030;2024-01-16T02:49:55;10.95;;;4.53;;
21315;SDS011;10817;55.820;13.030;2024-01-16T02:52:22;25.90;;;10.85;;
21315;SDS011;10817;55.820;13.030;2024-01-16T02:54:49;14.27;;;5.07;;
21315;SDS011;10817;55.820;13.030;2024-01-16T02:57:16;4.75;;;3.25;;
21315;SDS011;10817;55.820;13.030;2024-01-16T02:59:44;5.13;;;3.40;;
21315;SDS011;10817;55.820;13.030;2024-01-16T03:02:11;7.40;;;3.97;;
21315;SDS011;10817;55.820;13.030;2024-01-16T03:04:38;14.13;;;4.25;;
21315;SDS011;10817;55.820;13.030;2024-01-16T03:07:06;4.78;;;3.72;;
21315;SDS011;10817;55.820;13.030;2024-01-16T03:09:32;5.10;;;3.53;;
21315;SDS011;10817;55.820;13.030;2024-01-16T03:11:59;7.32;;;3.83;;
21315;SDS011;10817;55.820;13.030;2024-01-16T03:14:26;6.40;;;4.10;;
21315;SDS011;10817;55.820;13.030;2024-01-16T03:17:01;5.05;;;3.95;;
21315;SDS011;10817;55.820;13.030;2024-01-16T03:19:28;4.97;;;3.75;;
21315;SDS011;10817;55.820;13.030;2024-01-16T03:21:55;5.25;;;3.72;;
21315;SDS011;10817;55.820;13.030;2024-01-16T03:24:22;8.13;;;3.75;;
21315;SDS011;10817;55.820;13.030;2024-01-16T03:26:49;7.65;;;3.95;;
21315;SDS011;10817;55.820;13.030;2024-01-16T03:29:17;5.05;;;4.22;;
21315;SDS011;10817;55.820;13.030;2024-01-16T03:31:44;6.28;;;4.60;;
21315;SDS011;10817;55.820;13.030;2024-01-16T03:34:12;7.22;;;4.20;;
21315;SDS011;10817;55.820;13.030;2024-01-16T03:36:39;5.07;;;3.65;;
21315;SDS011;10817;55.820;13.030;2024-01-16T03:39:05;4.53;;;3.58;;
21315;SDS011;10817;55.820;13.030;2024-01-16T03:41:34;5.18;;;4.07;;
21315;SDS011;10817;55.820;13.030;2024-01-16T03:44:00;6.70;;;4.15;;
21315;SDS011;10817;55.820;13.030;2024-01-16T03:46:27;6.18;;;3.65;;
21315;SDS011;10817;55.820;13.030;2024-01-16T03:48:54;3.97;;;3.13;;
21315;SDS011;10817;55.820;13.030;2024-01-16T03:51:22;5.50;;;3.72;;
21315;SDS011;10817;55.820;13.030;2024-01-16T03:53:49;3.55;;;3.25;;
21315;SDS011;10817;55.820;13.030;2024-01-16T03:56:16;24.88;;;8.73;;
21315;SDS011;10817;55.820;13.030;2024-01-16T03:58:43;14.95;;;6.13;;
21315;SDS011;10817;55.820;13.030;2024-01-16T04:01:10;15.88;;;7.43;;
21315;SDS011;10817;55.820;13.030;2024-01-16T04:03:38;16.35;;;7.05;;
21315;SDS011;10817;55.820;13.030;2024-01-16T04:06:13;12.38;;;5.57;;
21315;SDS011;10817;55.820;13.030;2024-01-16T04:08:42;8.65;;;4.88;;
21315;SDS011;10817;55.820;13.030;2024-01-16T04:11:11;7.53;;;5.20;;
21315;SDS011;10817;55.820;13.030;2024-01-16T04:13:38;6.68;;;3.88;;
21315;SDS011;10817;55.820;13.030;2024-01-16T04:16:05;3.70;;;3.38;;
21315;SDS011;10817;55.820;13.030;2024-01-16T04:18:35;3.90;;;3.40;;
21315;SDS011;10817;55.820;13.030;2024-01-16T04:21:03;7.05;;;5.13;;
21315;SDS011;10817;55.820;13.030;2024-01-16T04:23:30;8.32;;;4.70;;
21315;SDS011;10817;55.820;13.030;2024-01-16T04:25:58;7.05;;;3.72;;
21315;SDS011;10817;55.820;13.030;2024-01-16T04:28:25;8.23;;;4.10;;
21315;SDS011;10817;55.820;13.030;2024-01-16T04:30:52;5.25;;;4.53;;
21315;SDS011;10817;55.820;13.030;2024-01-16T04:33:19;4.55;;;3.70;;
21315;SDS011;10817;55.820;13.030;2024-01-16T04:35:46;5.05;;;3.65;;
21315;SDS011;10817;55.820;13.030;2024-01-16T04:38:13;3.75;;;3.42;;
21315;SDS011;10817;55.820;13.030;2024-01-16T04:40:40;3.40;;;3.10;;
21315;SDS011;10817;55.820;13.030;2024-01-16T04:43:08;4.93;;;3.05;;
21315;SDS011;10817;55.820;13.030;2024-01-16T04:45:35;3.90;;;3.50;;
21315;SDS011;10817;55.820;13.030;2024-01-16T04:48:02;3.90;;;3.05;;
21315;SDS011;10817;55.820;13.030;2024-01-16T04:50:29;4.60;;;3.25;;
21315;SDS011;10817;55.820;13.030;2024-01-16T04:52:57;3.33;;;3.03;;
21315;SDS011;10817;55.820;13.030;2024-01-16T04:55:25;6.47;;;3.22;;
21315;SDS011;10817;55.820;13.030;2024-01-16T04:57:53;3.92;;;3.45;;
21315;SDS011;10817;55.820;13.030;2024-01-16T05:00:21;5.70;;;3.72;;
21315;SDS011;10817;55.820;13.030;2024-01-16T05:02:49;4.45;;;3.60;;
21315;SDS011;10817;55.820;13.030;2024-01-16T05:05:16;5.28;;;3.30;;
21315;SDS011;10817;55.820;13.030;2024-01-16T05:07:43;3.30;;;3.00;;
21315;SDS011;10817;55.820;13.030;2024-01-16T05:10:11;6.25;;;3.60;;
21315;SDS011;10817;55.820;13.030;2024-01-16T05:12:38;4.55;;;3.67;;
21315;SDS011;10817;55.820;13.030;2024-01-16T05:15:06;4.88;;;3.45;;
21315;SDS011;10817;55.820;13.030;2024-01-16T05:17:35;5.18;;;3.65;;
21315;SDS011;10817;55.820;13.030;2024-01-16T05:20:02;6.05;;;3.72;;
21315;SDS011;10817;55.820;13.030;2024-01-16T05:22:30;4.40;;;3.92;;
21315;SDS011;10817;55.820;13.030;2024-01-16T05:24:56;11.68;;;6.35;;
21315;SDS011;10817;55.820;13.030;2024-01-16T05:27:23;7.07;;;4.68;;
21315;SDS011;10817;55.820;13.030;2024-01-16T05:29:50;5.53;;;4.85;;
21315;SDS011;10817;55.820;13.030;2024-01-16T05:32:17;6.90;;;4.30;;
21315;SDS011;10817;55.820;13.030;2024-01-16T05:34:45;8.60;;;3.50;;
21315;SDS011;10817;55.820;13.030;2024-01-16T05:37:12;8.85;;;4.35;;
21315;SDS011;10817;55.820;13.030;2024-01-16T05:39:39;4.38;;;3.75;;
21315;SDS011;10817;55.820;13.030;2024-01-16T05:42:06;4.60;;;3.45;;
21315;SDS011;10817;55.820;13.030;2024-01-16T05:44:32;4.70;;;4.15;;
21315;SDS011;10817;55.820;13.030;2024-01-16T05:46:59;4.13;;;3.35;;
21315;SDS011;10817;55.820;13.030;2024-01-16T05:49:27;8.63;;;3.70;;
21315;SDS011;10817;55.820;13.030;2024-01-16T05:51:55;4.07;;;3.67;;
21315;SDS011;10817;55.820;13.030;2024-01-16T05:54:22;8.38;;;4.25;;
21315;SDS011;10817;55.820;13.030;2024-01-16T05:56:49;6.28;;;4.03;;
21315;SDS011;10817;55.820;13.030;2024-01-16T05:59:16;9.48;;;4.95;;
21315;SDS011;10817;55.820;13.030;2024-01-16T06:01:43;6.22;;;4.70;;
21315;SDS011;10817;55.820;13.030;2024-01-16T06:04:13;17.17;;;5.25;;
21315;SDS011;10817;55.820;13.030;2024-01-16T06:06:40;6.70;;;4.88;;
21315;SDS011;10817;55.820;13.030;2024-01-16T06:09:11;7.78;;;5.35;;
21315;SDS011;10817;55.820;13.030;2024-01-16T06:11:39;7.53;;;4.68;;
21315;SDS011;10817;55.820;13.030;2024-01-16T06:14:07;6.10;;;4.13;;
21315;SDS011;10817;55.820;13.030;2024-01-16T06:16:34;4.72;;;4.20;;
21315;SDS011;10817;55.820;13.030;2024-01-16T06:19:01;6.40;;;4.28;;
21315;SDS011;10817;55.820;13.030;2024-01-16T06:21:28;5.05;;;4.00;;
21315;SDS011;10817;55.820;13.030;2024-01-16T06:23:55;5.63;;;3.45;;
21315;SDS011;10817;55.820;13.030;2024-01-16T06:26:28;4.57;;;4.10;;
21315;SDS011;10817;55.820;13.030;2024-01-16T06:29:04;4.60;;;3.33;;
21315;SDS011;10817;55.820;13.030;2024-01-16T06:31:31;5.60;;;3.58;;
21315;SDS011;10817;55.820;13.030;2024-01-16T06:34:01;3.50;;;2.97;;
21315;SDS011;10817;55.820;13.030;2024-01-16T06:36:28;8.38;;;3.20;;
21315;SDS011;10817;55.820;13.030;2024-01-16T06:38:55;3.83;;;3.42;;
21315;SDS011;10817;55.820;13.030;2024-01-16T06:41:21;4.65;;;3.17;;
21315;SDS011;10817;55.820;13.030;2024-01-16T06:43:50;4.75;;;3.20;;
21315;SDS011;10817;55.820;13.030;2024-01-16T06:46:16;4.35;;;3.88;;
21315;SDS011;10817;55.820;13.030;2024-01-16T06:48:43;3.13;;;2.90;;
21315;SDS011;10817;55.820;13.030;2024-01-16T06:51:10;4.97;;;3.67;;
21315;SDS011;10817;55.820;13.030;2024-01-16T06:53:48;11.50;;;4.22;;
21315;SDS011;10817;55.820;13.030;2024-01-16T06:56:15;5.90;;;3.95;;
21315;SDS011;10817;55.820;13.030;2024-01-16T06:58:42;5.68;;;4.18;;
21315;SDS011;10817;55.820;13.030;2024-01-16T07:01:10;8.80;;;4.55;;
21315;SDS011;10817;55.820;13.030;2024-01-16T07:03:40;6.28;;;4.45;;
21315;SDS011;10817;55.820;13.030;2024-01-16T07:06:08;5.35;;;4.03;;
21315;SDS011;10817;55.820;13.030;2024-01-16T07:08:37;4.35;;;3.90;;
21315;SDS011;10817;55.820;13.030;2024-01-16T07:11:04;3.97;;;3.55;;
21315;SDS011;10817;55.820;13.030;2024-01-16T07:13:33;4.22;;;3.50;;
21315;SDS011;10817;55.820;13.030;2024-01-16T07:16:00;4.60;;;3.45;;
21315;SDS011;10817;55.820;13.030;2024-01-16T07:18:28;3.92;;;3.53;;
21315;SDS011;10817;55.820;13.030;2024-01-16T07:20:59;4.78;;;3.92;;
21315;SDS011;10817;55.820;13.030;2024-01-16T07:23:35;7.00;;;3.50;;
21315;SDS011;10817;55.820;13.030;2024-01-16T07:26:02;7.68;;;4.47;;
21315;SDS011;10817;55.820;13.030;2024-01-16T07:28:29;3.63;;;3.33;;
21315;SDS011;10817;55.820;13.030;2024-01-16T07:30:56;7.43;;;3.78;;
21315;SDS011;10817;55.820;13.030;2024-01-16T07:33:23;7.55;;;3.38;;
21315;SDS011;10817;55.820;13.030;2024-01-16T07:35:51;4.90;;;3.35;;
21315;SDS011;10817;55.820;13.030;2024-01-16T07:38:18;5.80;;;3.65;;
21315;SDS011;10817;55.820;13.030;2024-01-16T07:40:48;4.18;;;3.75;;
21315;SDS011;10817;55.820;13.030;2024-01-16T07:43:14;17.98;;;7.65;;
21315;SDS011;10817;55.820;13.030;2024-01-16T07:45:41;11.70;;;5.40;;
21315;SDS011;10817;55.820;13.030;2024-01-16T07:48:08;5.95;;;4.35;;
21315;SDS011;10817;55.820;13.030;2024-01-16T07:50:35;9.52;;;4.40;;
21315;SDS011;10817;55.820;13.030;2024-01-16T07:53:03;4.88;;;3.67;;
21315;SDS011;10817;55.820;13.030;2024-01-16T07:55:30;8.73;;;3.90;;
21315;SDS011;10817;55.820;13.030;2024-01-16T07:57:57;3.28;;;3.03;;
21315;SDS011;10817;55.820;13.030;2024-01-16T08:00:24;3.97;;;3.42;;
21315;SDS011;10817;55.820;13.030;2024-01-16T08:02:52;8.52;;;3.60;;
21315;SDS011;10817;55.820;13.030;2024-01-16T08:05:19;3.55;;;3.25;;
21315;SDS011;10817;55.820;13.030;2024-01-16T08:07:47;3.25;;;2.95;;
21315;SDS011;10817;55.820;13.030;2024-01-16T08:10:15;4.03;;;3.28;;
21315;SDS011;10817;55.820;13.030;2024-01-16T08:12:41;3.40;;;3.10;;
21315;SDS011;10817;55.820;13.030;2024-01-16T08:15:08;4.43;;;3.42;;
21315;SDS011;10817;55.820;13.030;2024-01-16T08:17:41;3.83;;;3.22;;
21315;SDS011;10817;55.820;13.030;2024-01-16T08:20:08;4.43;;;3.50;;
21315;SDS011;10817;55.820;13.030;2024-01-16T08:22:37;4.32;;;3.42;;
21315;SDS011;10817;55.820;13.030;2024-01-16T08:25:07;4.55;;;3.42;;
21315;SDS011;10817;55.820;13.030;2024-01-16T08:27:35;4.05;;;3.63;;
21315;SDS011;10817;55.820;13.030;2024-01-16T08:30:03;4.78;;;3.97;;
21315;SDS011;10817;55.820;13.030;2024-01-16T08:32:33;4.80;;;3.83;;
21315;SDS011;10817;55.820;13.030;2024-01-16T08:35:00;4.65;;;4.25;;
21315;SDS011;10817;55.820;13.030;2024-01-16T08:37:34;6.82;;;3.70;;
21315;SDS011;10817;55.820;13.030;2024-01-16T08:40:01;6.55;;;3.65;;
21315;SDS011;10817;55.820;13.030;2024-01-16T08:42:31;4.20;;;3.80;;
21315;SDS011;10817;55.820;13.030;2024-01-16T08:44:59;3.58;;;3.05;;
21315;SDS011;10817;55.820;13.030;2024-01-16T08:47:26;3.80;;;3.40;;
21315;SDS011;10817;55.820;13.030;2024-01-16T08:49:53;7.60;;;3.92;;
21315;SDS011;10817;55.820;13.030;2024-01-16T08:52:20;7.55;;;4.13;;
21315;SDS011;10817;55.820;13.030;2024-01-16T08:54:47;7.03;;;4.07;;
21315;SDS011;10817;55.820;13.030;2024-01-16T08:57:14;3.85;;;3.45;;
21315;SDS011;10817;55.820;13.030;2024-01-16T08:59:41;10.18;;;4.20;;
21315;SDS011;10817;55.820;13.030;2024-01-16T09:02:09;6.18;;;4.88;;
21315;SDS011;10817;55.820;13.030;2024-01-16T09:04:36;7.25;;;4.75;;
21315;SDS011;10817;55.820;13.030;2024-01-16T09:07:03;11.93;;;4.50;;
21315;SDS011;10817;55.820;13.030;2024-01-16T09:09:30;6.05;;;4.80;;
21315;SDS011;10817;55.820;13.030;2024-01-16T09:11:57;9.80;;;5.15;;
21315;SDS011;10817;55.820;13.030;2024-01-16T09:14:24;6.57;;;4.00;;
21315;SDS011;10817;55.820;13.030;2024-01-16T09:17:02;5.43;;;3.75;;
21315;SDS011;10817;55.820;13.030;2024-01-16T09:19:30;4.93;;;3.55;;
21315;SDS011;10817;55.820;13.030;2024-01-16T09:21:57;3.17;;;2.83;;
21315;SDS011;10817;55.820;13.030;2024-01-16T09:24:24;2.55;;;2.35;;
21315;SDS011;10817;55.820;13.030;2024-01-16T09:26:51;5.78;;;2.90;;
21315;SDS011;10817;55.820;13.030;2024-01-16T09:29:18;4.55;;;4.00;;
21315;SDS011;10817;55.820;13.030;2024-01-16T09:31:45;7.55;;;3.83;;
21315;SDS011;10817;55.820;13.030;2024-01-16T09:34:12;3.38;;;2.65;;
21315;SDS011;10817;55.820;13.030;2024-01-16T09:36:41;3.08;;;2.22;;
21315;SDS011;10817;55.820;13.030;2024-01-16T09:39:07;4.65;;;2.92;;
21315;SDS011;10817;55.820;13.030;2024-01-16T09:41:36;6.78;;;2.80;;
21315;SDS011;10817;55.820;13.030;2024-01-16T09:44:03;4.97;;;3.13;;
21315;SDS011;10817;55.820;13.030;2024-01-16T09:46:31;3.38;;;2.45;;
21315;SDS011;10817;55.820;13.030;2024-01-16T09:48:59;3.53;;;2.63;;
21315;SDS011;10817;55.820;13.030;2024-01-16T09:51:27;7.20;;;2.72;;
21315;SDS011;10817;55.820;13.030;2024-01-16T09:53:56;7.57;;;3.05;;
21315;SDS011;10817;55.820;13.030;2024-01-16T09:56:23;4.47;;;2.30;;
21315;SDS011;10817;55.820;13.030;2024-01-16T09:58:52;4.25;;;2.58;;
21315;SDS011;10817;55.820;13.030;2024-01-16T10:01:23;2.53;;;2.30;;
21315;SDS011;10817;55.820;13.030;2024-01-16T10:03:53;5.13;;;2.92;;
21315;SDS011;10817;55.820;13.030;2024-01-16T10:06:20;4.20;;;2.78;;
21315;SDS011;10817;55.820;13.030;2024-01-16T10:08:47;5.93;;;2.20;;
21315;SDS011;10817;55.820;13.030;2024-01-16T10:11:16;6.60;;;2.47;;
21315;SDS011;10817;55.820;13.030;2024-01-16T10:13:43;10.45;;;2.40;;
21315;SDS011;10817;55.820;13.030;2024-01-16T10:16:11;5.75;;;2.10;;
21315;SDS011;10817;55.820;13.030;2024-01-16T10:18:37;5.63;;;2.60;;
21315;SDS011;10817;55.820;13.030;2024-01-16T10:21:04;3.83;;;2.40;;
21315;SDS011;10817;55.820;13.030;2024-01-16T10:23:45;3.67;;;2.15;;
21315;SDS011;10817;55.820;13.030;2024-01-16T10:26:12;9.80;;;2.25;;
21315;SDS011;10817;55.820;13.030;2024-01-16T10:28:41;5.40;;;2.75;;
21315;SDS011;10817;55.820;13.030;2024-01-16T10:31:09;4.32;;;2.97;;
21315;SDS011;10817;55.820;13.030;2024-01-16T10:33:39;10.10;;;2.70;;
21315;SDS011;10817;55.820;13.030;2024-01-16T10:36:10;6.85;;;3.22;;
21315;SDS011;10817;55.820;13.030;2024-01-16T10:38:38;5.93;;;2.42;;
21315;SDS011;10817;55.820;13.030;2024-01-16T10:41:09;3.03;;;2.30;;
21315;SDS011;10817;55.820;13.030;2024-01-16T10:43:37;3.03;;;2.05;;
21315;SDS011;10817;55.820;13.030;2024-01-16T10:46:09;3.15;;;2.00;;
21315;SDS011;10817;55.820;13.030;2024-01-16T10:48:38;3.70;;;2.60;;
21315;SDS011;10817;55.820;13.030;2024-01-16T10:51:06;2.40;;;2.20;;
21315;SDS011;10817;55.820;13.030;2024-01-16T10:53:34;4.10;;;2.47;;
21315;SDS011;10817;55.820;13.030;2024-01-16T10:56:03;4.22;;;2.47;;
21315;SDS011;10817;55.820;13.030;2024-01-16T10:58:36;3.45;;;2.45;;
21315;SDS011;10817;55.820;13.030;2024-01-16T11:01:08;3.78;;;2.78;;
21315;SDS011;10817;55.820;13.030;2024-01-16T11:03:42;4.75;;;3.10;;
21315;SDS011;10817;55.820;13.030;2024-01-16T11:06:12;4.70;;;2.55;;
21315;SDS011;10817;55.820;13.030;2024-01-16T11:08:42;5.70;;;2.67;;
21315;SDS011;10817;55.820;13.030;2024-01-16T11:11:11;5.90;;;3.17;;
21315;SDS011;10817;55.820;13.030;2024-01-16T11:13:39;6.68;;;3.65;;
21315;SDS011;10817;55.820;13.030;2024-01-16T11:16:11;5.20;;;3.00;;
21315;SDS011;10817;55.820;13.030;2024-01-16T11:18:39;6.03;;;2.85;;
21315;SDS011;10817;55.820;13.030;2024-01-16T11:21:06;7.13;;;3.35;;
21315;SDS011;10817;55.820;13.030;2024-01-16T11:23:35;5.43;;;3.33;;
21315;SDS011;10817;55.820;13.030;2024-01-16T11:28:54;4.80;;;2.47;;
21315;SDS011;10817;55.820;13.030;2024-01-16T11:31:29;4.68;;;2.35;;
21315;SDS011;10817;55.820;13.030;2024-01-16T11:33:57;6.07;;;3.13;;
21315;SDS011;10817;55.820;13.030;2024-01-16T11:39:21;6.57;;;2.72;;
21315;SDS011;10817;55.820;13.030;2024-01-16T11:41:53;4.95;;;2.65;;
21315;SDS011;10817;55.820;13.030;2024-01-16T11:44:35;6.07;;;2.65;;
21315;SDS011;10817;55.820;13.030;2024-01-16T11:47:04;3.50;;;2.58;;
21315;SDS011;10817;55.820;13.030;2024-01-16T11:49:32;2.63;;;2.15;;
21315;SDS011;10817;55.820;13.030;2024-01-16T11:51:59;3.38;;;1.90;;
21315;SDS011;10817;55.820;13.030;2024-01-16T11:54:27;2.08;;;1.83;;
21315;SDS011;10817;55.820;13.030;2024-01-16T12:02:46;5.28;;;2.63;;
21315;SDS011;10817;55.820;13.030;2024-01-16T12:05:21;4.88;;;2.38;;
21315;SDS011;10817;55.820;13.030;2024-01-16T12:07:49;5.28;;;2.65;;
21315;SDS011;10817;55.820;13.030;2024-01-16T12:10:17;6.07;;;2.67;;
21315;SDS011;10817;55.820;13.030;2024-01-16T12:12:45;7.28;;;2.83;;
21315;SDS011;10817;55.820;13.030;2024-01-16T12:15:13;2.55;;;1.98;;
21315;SDS011;10817;55.820;13.030;2024-01-16T12:17:57;6.72;;;2.20;;
21315;SDS011;10817;55.820;13.030;2024-01-16T12:20:25;6.13;;;2.85;;
21315;SDS011;10817;55.820;13.030;2024-01-16T12:22:57;5.10;;;2.30;;
21315;SDS011;10817;55.820;13.030;2024-01-16T12:25:25;6.13;;;2.55;;
21315;SDS011;10817;55.820;13.030;2024-01-16T12:27:56;3.33;;;2.40;;
21315;SDS011;10817;55.820;13.030;2024-01-16T12:30:24;4.55;;;2.20;;
21315;SDS011;10817;55.820;13.030;2024-01-16T12:33:03;3.47;;;2.05;;
21315;SDS011;10817;55.820;13.030;2024-01-16T12:35:34;2.58;;;1.80;;
21315;SDS011;10817;55.820;13.030;2024-01-16T12:38:01;2.92;;;1.90;;
21315;SDS011;10817;55.820;13.030;2024-01-16T12:40:30;5.15;;;2.10;;
21315;SDS011;10817;55.820;13.030;2024-01-16T12:42:58;2.40;;;1.88;;
21315;SDS011;10817;55.820;13.030;2024-01-16T12:45:25;3.42;;;2.00;;
21315;SDS011;10817;55.820;13.030;2024-01-16T12:47:53;2.88;;;1.90;;
21315;SDS011;10817;55.820;13.030;2024-01-16T12:50:24;7.93;;;2.72;;
21315;SDS011;10817;55.820;13.030;2024-01-16T12:53:00;4.85;;;2.45;;
21315;SDS011;10817;55.820;13.030;2024-01-16T12:55:28;4.70;;;2.58;;
21315;SDS011;10817;55.820;13.030;2024-01-16T13:00:41;4.63;;;2.70;;
21315;SDS011;10817;55.820;13.030;2024-01-16T13:03:07;3.60;;;2.42;;
21315;SDS011;10817;55.820;13.030;2024-01-16T13:05:42;4.53;;;2.75;;
21315;SDS011;10817;55.820;13.030;2024-01-16T13:08:09;4.80;;;2.33;;
21315;SDS011;10817;55.820;13.030;2024-01-16T13:10:43;3.83;;;2.20;;
21315;SDS011;10817;55.820;13.030;2024-01-16T13:13:14;3.08;;;2.10;;
21315;SDS011;10817;55.820;13.030;2024-01-16T13:15:42;4.00;;;2.30;;
21315;SDS011;10817;55.820;13.030;2024-01-16T13:18:19;2.15;;;1.90;;
21315;SDS011;10817;55.820;13.030;2024-01-16T13:20:48;3.78;;;2.10;;
21315;SDS011;10817;55.820;13.030;2024-01-16T13:23:15;3.53;;;2.30;;
21315;SDS011;10817;55.820;13.030;2024-01-16T13:25:43;3.05;;;1.90;;
21315;SDS011;10817;55.820;13.030;2024-01-16T13:28:11;3.25;;;2.17;;
21315;SDS011;10817;55.820;13.030;2024-01-16T13:30:39;3.10;;;2.15;;
21315;SDS011;10817;55.820;13.030;2024-01-16T13:33:06;3.15;;;1.90;;
21315;SDS011;10817;55.820;13.030;2024-01-16T13:35:34;3.03;;;1.90;;
21315;SDS011;10817;55.820;13.030;2024-01-16T13:38:02;3.38;;;2.10;;
21315;SDS011;10817;55.820;13.030;2024-01-16T13:40:30;4.82;;;2.47;;
21315;SDS011;10817;55.820;13.030;2024-01-16T13:42:57;3.28;;;1.92;;
21315;SDS011;10817;55.820;13.030;2024-01-16T13:45:23;3.75;;;1.98;;
21315;SDS011;10817;55.820;13.030;2024-01-16T13:47:50;3.70;;;2.33;;
21315;SDS011;10817;55.820;13.030;2024-01-16T13:50:17;3.63;;;2.05;;
21315;SDS011;10817;55.820;13.030;2024-01-16T13:52:44;3.53;;;2.17;;
21315;SDS011;10817;55.820;13.030;2024-01-16T13:55:12;3.10;;;2.10;;
21315;SDS011;10817;55.820;13.030;2024-01-16T13:57:39;4.65;;;2.20;;
21315;SDS011;10817;55.820;13.030;2024-01-16T14:00:07;4.03;;;2.15;;
21315;SDS011;10817;55.820;13.030;2024-01-16T14:02:38;3.80;;;1.85;;
21315;SDS011;10817;55.820;13.030;2024-01-16T14:05:06;2.90;;;1.92;;
21315;SDS011;10817;55.820;13.030;2024-01-16T14:07:36;2.45;;;2.10;;
21315;SDS011;10817;55.820;13.030;2024-01-16T14:10:04;5.30;;;2.28;;
21315;SDS011;10817;55.820;13.030;2024-01-16T14:12:33;4.47;;;2.38;;
21315;SDS011;10817;55.820;13.030;2024-01-16T14:15:01;3.50;;;2.40;;
21315;SDS011;10817;55.820;13.030;2024-01-16T14:17:29;6.43;;;3.03;;
21315;SDS011;10817;55.820;13.030;2024-01-16T14:19:56;4.32;;;2.58;;
21315;SDS011;10817;55.820;13.030;2024-01-16T14:22:24;6.13;;;2.75;;
21315;SDS011;10817;55.820;13.030;2024-01-16T14:24:51;7.30;;;2.75;;
21315;SDS011;10817;55.820;13.030;2024-01-16T14:27:18;3.55;;;2.75;;
21315;SDS011;10817;55.820;13.030;2024-01-16T14:29:46;6.22;;;2.72;;
21315;SDS011;10817;55.820;13.030;2024-01-16T14:32:13;4.00;;;2.70;;
21315;SDS011;10817;55.820;13.030;2024-01-16T14:34:40;5.68;;;2.78;;
21315;SDS011;10817;55.820;13.030;2024-01-16T14:37:07;4.38;;;2.80;;
21315;SDS011;10817;55.820;13.030;2024-01-16T14:39:35;5.05;;;2.80;;
21315;SDS011;10817;55.820;13.030;2024-01-16T14:42:02;6.15;;;3.08;;
21315;SDS011;10817;55.820;13.030;2024-01-16T14:44:29;8.52;;;3.33;;
21315;SDS011;10817;55.820;13.030;2024-01-16T14:46:57;4.72;;;3.25;;
21315;SDS011;10817;55.820;13.030;2024-01-16T14:49:24;5.38;;;4.07;;
21315;SDS011;10817;55.820;13.030;2024-01-16T14:51:56;7.45;;;3.55;;
21315;SDS011;10817;55.820;13.030;2024-01-16T14:54:24;4.43;;;3.33;;
21315;SDS011;10817;55.820;13.030;2024-01-16T14:56:51;5.10;;;3.40;;
21315;SDS011;10817;55.820;13.030;2024-01-16T14:59:18;3.58;;;2.95;;
21315;SDS011;10817;55.820;13.030;2024-01-16T15:01:44;7.38;;;3.80;;
21315;SDS011;10817;55.820;13.030;2024-01-16T15:04:13;4.45;;;3.33;;